createdAt,value
2022-08-04T00:01:49.362Z,1.90
2022-08-04T00:04:24.221Z,1.17
2022-08-04T00:06:51.532Z,1.00
2022-08-04T00:09:40.512Z,1.20
2022-08-04T00:12:08.595Z,1.40
2022-08-04T00:14:36.427Z,7.78
2022-08-04T00:17:05.226Z,1.35
2022-08-04T00:19:44.289Z,1.52
2022-08-04T00:22:13.036Z,1.48
2022-08-04T00:24:40.454Z,1.65
2022-08-04T00:27:09.064Z,1.05
2022-08-04T00:29:36.515Z,1.20
2022-08-04T00:32:04.176Z,0.90
2022-08-04T00:34:32.448Z,1.00
2022-08-04T00:36:59.886Z,1.25
2022-08-04T00:39:27.565Z,1.38
2022-08-04T00:42:24.248Z,1.30
2022-08-04T00:44:51.514Z,1.40
2022-08-04T00:47:42.207Z,1.08
2022-08-04T00:50:11.044Z,1.20
2022-08-04T00:52:47.437Z,1.30
2022-08-04T00:55:30.047Z,1.25
2022-08-04T00:58:18.498Z,1.45
2022-08-04T01:00:59.595Z,1.10
2022-08-04T01:03:36.241Z,1.27
2022-08-04T01:06:19.268Z,1.13
2022-08-04T01:08:50.796Z,1.83
2022-08-04T01:11:20.856Z,1.08
2022-08-04T01:13:51.230Z,1.10
2022-08-04T01:16:18.925Z,1.38
2022-08-04T01:19:01.241Z,0.93
2022-08-04T01:21:31.594Z,1.20
2022-08-04T01:24:11.187Z,1.27
2022-08-04T01:26:57.727Z,1.10
2022-08-04T01:29:29.333Z,1.42
2022-08-04T01:32:11.471Z,1.15
2022-08-04T01:34:52.094Z,1.20
2022-08-04T01:37:22.774Z,1.00
2022-08-04T01:40:01.430Z,1.10
2022-08-04T01:42:32.175Z,1.30
2022-08-04T01:47:29.626Z,1.13
2022-08-04T01:50:02.835Z,1.35
2022-08-04T01:52:30.602Z,1.20
2022-08-04T01:54:58.225Z,1.30
2022-08-04T01:57:38.371Z,1.17
2022-08-04T02:00:07.103Z,1.10
2022-08-04T02:02:34.835Z,1.20
2022-08-04T02:05:02.185Z,1.10
2022-08-04T02:07:48.763Z,1.13
2022-08-04T02:10:16.045Z,1.25
2022-08-04T02:12:43.296Z,0.90
2022-08-04T02:15:15.174Z,1.10
2022-08-04T02:17:50.978Z,1.30
2022-08-04T02:20:34.649Z,1.10
2022-08-04T02:23:05.285Z,0.95
2022-08-04T02:25:40.348Z,1.05
2022-08-04T02:28:28.912Z,1.35
2022-08-04T02:31:11.190Z,1.23
2022-08-04T02:33:40.287Z,1.50
2022-08-04T02:36:10.305Z,1.10
2022-08-04T02:38:40.612Z,1.20
2022-08-04T02:41:09.844Z,1.10
2022-08-04T02:43:52.210Z,1.20
2022-08-04T02:46:20.899Z,1.40
2022-08-04T02:48:49.153Z,1.50
2022-08-04T02:51:18.019Z,1.23
2022-08-04T02:53:46.473Z,1.30
2022-08-04T02:56:16.396Z,1.30
2022-08-04T02:58:45.155Z,1.40
2022-08-04T03:01:12.536Z,1.42
2022-08-04T03:03:41.984Z,1.50
2022-08-04T03:06:12.389Z,1.98
2022-08-04T03:09:09.227Z,1.55
2022-08-04T03:11:36.573Z,1.42
2022-08-04T03:14:13.965Z,1.63
2022-08-04T03:16:47.219Z,1.13
2022-08-04T03:19:14.481Z,1.30
2022-08-04T03:21:47.975Z,1.55
2022-08-04T03:24:24.469Z,1.85
2022-08-04T03:27:04.181Z,1.30
2022-08-04T03:29:55.427Z,1.80
2022-08-04T03:32:41.625Z,1.55
2022-08-04T03:35:13.586Z,1.35
2022-08-04T03:37:49.775Z,1.50
2022-08-04T03:40:36.362Z,1.60
2022-08-04T03:43:58.699Z,1.77
2022-08-04T03:46:12.984Z,1.70
2022-08-04T03:48:52.412Z,1.40
2022-08-04T03:51:46.446Z,1.85
2022-08-04T03:54:13.705Z,1.50
2022-08-04T03:56:51.607Z,1.67
2022-08-04T03:59:30.915Z,1.40
2022-08-04T04:02:21.470Z,2.10
2022-08-04T04:05:05.630Z,1.77
2022-08-04T04:07:42.041Z,1.52
2022-08-04T04:10:23.349Z,1.88
2022-08-04T04:12:56.278Z,1.60
2022-08-04T04:15:32.522Z,1.20
2022-08-04T04:18:09.611Z,1.63
2022-08-04T04:20:54.850Z,1.48
2022-08-04T04:23:22.963Z,1.83
2022-08-04T04:25:56.777Z,1.45
2022-08-04T04:28:45.395Z,1.80
2022-08-04T04:31:20.252Z,1.50
2022-08-04T04:34:00.004Z,2.13
2022-08-04T04:36:39.393Z,1.45
2022-08-04T04:39:12.865Z,1.75
2022-08-04T04:41:46.296Z,1.48
2022-08-04T04:44:32.321Z,1.60
2022-08-04T04:47:02.437Z,1.60
2022-08-04T04:49:38.798Z,1.80
2022-08-04T04:52:16.027Z,1.60
2022-08-04T04:55:01.246Z,2.03
2022-08-04T04:57:54.005Z,1.55
2022-08-04T05:00:18.187Z,1.63
2022-08-04T05:03:00.506Z,2.15
2022-08-04T05:05:47.627Z,1.58
2022-08-04T05:08:41.366Z,1.80
2022-08-04T05:11:12.906Z,1.27
2022-08-04T05:14:36.437Z,1.60
2022-08-04T05:16:35.758Z,2.13
2022-08-04T05:19:03.075Z,1.42
2022-08-04T05:21:39.589Z,2.08
2022-08-04T05:24:08.201Z,1.70
2022-08-04T05:26:38.258Z,2.00
2022-08-04T05:29:08.378Z,1.90
2022-08-04T05:31:38.318Z,2.08
2022-08-04T05:34:10.563Z,1.70
2022-08-04T05:36:42.787Z,1.65
2022-08-04T05:39:34.281Z,1.45
2022-08-04T05:42:04.416Z,1.85
2022-08-04T05:44:33.302Z,2.10
2022-08-04T05:47:00.768Z,1.90
2022-08-04T05:49:29.812Z,2.22
2022-08-04T05:52:00.575Z,2.05
2022-08-04T05:54:29.320Z,1.58
2022-08-04T05:56:57.470Z,1.95
2022-08-04T05:59:28.635Z,2.10
2022-08-04T06:01:57.693Z,1.77
2022-08-04T06:04:44.200Z,2.00
2022-08-04T06:07:11.627Z,1.90
2022-08-04T06:09:39.110Z,2.40
2022-08-04T06:12:19.597Z,2.30
2022-08-04T06:14:48.068Z,1.92
2022-08-04T06:19:59.025Z,1.75
2022-08-04T06:20:19.566Z,1.80
2022-08-04T06:22:53.673Z,1.73
2022-08-04T06:25:24.143Z,1.90
2022-08-04T06:27:51.634Z,1.52
2022-08-04T06:30:20.220Z,1.70
2022-08-04T06:33:03.863Z,2.20
2022-08-04T06:35:32.657Z,2.30
2022-08-04T06:38:01.204Z,2.10
2022-08-04T06:40:33.411Z,2.08
2022-08-04T06:43:05.986Z,2.45
2022-08-04T06:45:35.116Z,2.03
2022-08-04T06:48:03.197Z,2.30
2022-08-04T06:51:26.315Z,2.20
2022-08-04T06:53:19.096Z,2.22
2022-08-04T06:55:47.647Z,2.30
2022-08-04T06:58:15.776Z,2.20
2022-08-04T07:00:44.097Z,2.17
2022-08-04T07:03:11.632Z,2.45
2022-08-04T07:05:39.327Z,2.17
2022-08-04T07:08:06.852Z,1.75
2022-08-04T07:10:35.129Z,2.15
2022-08-04T07:13:03.206Z,2.10
2022-08-04T07:15:30.995Z,2.58
2022-08-04T07:18:00.489Z,1.85
2022-08-04T07:20:35.976Z,2.20
2022-08-04T07:23:07.041Z,2.25
2022-08-04T07:26:11.055Z,1.67
2022-08-04T07:28:23.777Z,2.00
2022-08-04T07:30:51.270Z,2.40
2022-08-04T07:33:18.697Z,2.17
2022-08-04T07:36:09.737Z,2.50
2022-08-04T07:38:48.816Z,2.25
2022-08-04T07:41:37.992Z,2.05
2022-08-04T07:44:05.929Z,2.05
2022-08-04T07:46:33.347Z,2.40
2022-08-04T07:49:01.436Z,2.38
2022-08-04T07:51:30.674Z,2.15
2022-08-04T07:53:58.791Z,2.50
2022-08-04T07:56:27.057Z,2.17
2022-08-04T07:58:54.900Z,2.47
2022-08-04T08:04:58.705Z,2.28
2022-08-04T08:07:26.031Z,2.90
2022-08-04T08:09:53.366Z,3.10
2022-08-04T08:12:35.188Z,2.85
2022-08-04T08:15:08.996Z,2.40
2022-08-04T08:17:59.541Z,2.80
2022-08-04T08:20:29.732Z,2.53
2022-08-04T08:22:57.910Z,2.80
2022-08-04T08:25:25.619Z,2.63
2022-08-04T08:27:56.412Z,2.58
2022-08-04T08:30:24.341Z,2.42
2022-08-04T08:32:51.835Z,2.20
2022-08-04T08:35:19.406Z,2.80
2022-08-04T08:37:51.407Z,2.58
2022-08-04T08:40:40.226Z,2.63
2022-08-04T08:44:04.544Z,2.72
2022-08-04T08:46:38.822Z,2.67
2022-08-04T08:50:00.842Z,2.78
2022-08-04T08:52:57.282Z,3.20
2022-08-04T08:55:27.869Z,2.40
2022-08-04T08:58:19.825Z,2.40
2022-08-04T09:00:59.239Z,2.50
2022-08-04T09:03:45.290Z,2.45
2022-08-04T09:06:32.054Z,2.40
2022-08-04T09:09:11.495Z,2.70
2022-08-04T09:11:42.881Z,3.10
2022-08-04T09:14:18.240Z,2.95
2022-08-04T09:16:50.672Z,2.70
2022-08-04T09:19:39.098Z,2.88
2022-08-04T09:22:26.012Z,2.75
2022-08-04T09:24:53.340Z,3.05
2022-08-04T09:27:21.812Z,2.55
2022-08-04T09:29:51.991Z,2.60
2022-08-04T09:32:29.381Z,2.93
2022-08-04T09:35:06.122Z,2.88
2022-08-04T09:37:50.889Z,2.83
2022-08-04T09:40:29.038Z,3.03
2022-08-04T09:42:59.291Z,2.28
2022-08-04T09:45:49.103Z,2.58
2022-08-04T09:48:56.186Z,2.42
2022-08-04T09:51:23.442Z,2.67
2022-08-04T09:54:09.551Z,2.35
2022-08-04T09:56:59.698Z,2.53
2022-08-04T09:59:34.630Z,2.60
2022-08-04T10:02:07.938Z,2.45
2022-08-04T10:04:36.482Z,2.22
2022-08-04T10:07:09.274Z,2.38
2022-08-04T10:09:53.329Z,2.33
2022-08-04T10:12:32.341Z,2.13
2022-08-04T10:15:17.999Z,2.28
2022-08-04T10:18:00.500Z,2.58
2022-08-04T10:20:36.530Z,2.65
2022-08-04T10:23:24.502Z,2.20
2022-08-04T10:26:16.288Z,2.80
2022-08-04T10:28:50.470Z,2.22
2022-08-04T10:31:23.540Z,2.25
2022-08-04T10:33:53.851Z,2.00
2022-08-04T10:39:12.053Z,2.50
2022-08-04T10:42:04.553Z,2.53
2022-08-04T10:44:46.270Z,2.38
2022-08-04T10:47:21.622Z,2.58
2022-08-04T10:49:55.757Z,2.58
2022-08-04T10:52:35.058Z,2.47
2022-08-04T10:55:08.671Z,2.10
2022-08-04T10:57:44.383Z,2.50
2022-08-04T11:00:16.543Z,2.67
2022-08-04T11:02:43.924Z,2.63
2022-08-04T11:05:11.251Z,2.63
2022-08-04T11:07:39.829Z,2.67
2022-08-04T11:10:07.899Z,2.30
2022-08-04T11:12:35.612Z,2.47
2022-08-04T11:15:06.438Z,2.40
2022-08-04T11:17:36.868Z,2.42
2022-08-04T11:20:34.085Z,2.53
2022-08-04T11:23:05.555Z,2.45
2022-08-04T11:26:02.232Z,2.45
2022-08-04T11:28:34.672Z,2.08
2022-08-04T11:31:12.045Z,2.50
2022-08-04T11:33:39.297Z,2.50
2022-08-04T11:36:15.720Z,2.95
2022-08-04T11:38:46.023Z,2.80
2022-08-04T11:41:39.702Z,2.40
2022-08-04T11:44:12.273Z,2.88
2022-08-04T11:46:42.989Z,2.63
2022-08-04T11:49:13.415Z,2.42
2022-08-04T11:51:42.063Z,2.80
2022-08-04T11:54:10.271Z,2.63
2022-08-04T11:56:38.341Z,2.50
2022-08-04T11:59:10.550Z,2.20
2022-08-04T12:02:04.001Z,2.20
2022-08-04T12:04:37.365Z,2.35
2022-08-04T12:07:30.113Z,2.28
2022-08-04T12:10:01.405Z,2.47
2022-08-04T12:12:47.440Z,2.65
2022-08-04T12:15:20.672Z,2.42
2022-08-04T12:17:53.937Z,2.60
2022-08-04T12:20:38.430Z,2.63
2022-08-04T12:23:14.987Z,2.50
2022-08-04T12:25:45.425Z,2.35
2022-08-04T12:28:17.243Z,2.28
2022-08-04T12:30:57.436Z,2.40
2022-08-04T12:34:02.717Z,2.22
2022-08-04T12:36:19.215Z,2.15
2022-08-04T12:38:50.602Z,2.45
2022-08-04T12:41:21.958Z,2.05
2022-08-04T12:43:50.387Z,2.38
2022-08-04T12:46:25.221Z,2.30
2022-08-04T12:48:52.826Z,2.13
2022-08-04T12:52:06.371Z,2.20
2022-08-04T12:54:10.304Z,2.15
2022-08-04T12:56:38.413Z,2.42
2022-08-04T12:59:12.839Z,2.38
2022-08-04T13:02:08.645Z,2.88
2022-08-04T13:04:29.265Z,2.40
2022-08-04T13:07:09.336Z,2.47
2022-08-04T13:09:38.417Z,2.20
2022-08-04T13:12:12.407Z,2.38
2022-08-04T13:14:44.135Z,2.50
2022-08-04T13:17:14.381Z,2.40
2022-08-04T13:19:47.070Z,2.60
2022-08-04T13:22:27.945Z,2.65
2022-08-04T13:26:40.535Z,2.30
2022-08-04T13:27:48.431Z,2.05
2022-08-04T13:30:22.699Z,2.60
2022-08-04T13:32:54.571Z,2.50
2022-08-04T13:35:22.346Z,2.90
2022-08-04T13:37:49.796Z,2.53
2022-08-04T13:40:17.256Z,2.78
2022-08-04T13:42:48.072Z,2.50
2022-08-04T13:45:16.506Z,2.20
2022-08-04T13:47:44.302Z,2.65
2022-08-04T13:50:12.225Z,2.58
2022-08-04T13:52:40.903Z,2.35
2022-08-04T13:55:08.617Z,2.58
2022-08-04T13:57:43.906Z,2.50
2022-08-04T14:00:12.196Z,2.70
2022-08-04T14:02:48.213Z,2.35
2022-08-04T14:05:18.612Z,2.50
2022-08-04T14:10:14.343Z,2.33
2022-08-04T14:12:49.159Z,2.60
2022-08-04T14:16:01.561Z,2.70
2022-08-04T14:18:34.890Z,2.42
2022-08-04T14:21:02.205Z,2.58
2022-08-04T14:23:33.173Z,2.17
2022-08-04T14:26:01.286Z,2.40
2022-08-04T14:29:09.573Z,2.70
2022-08-04T14:31:21.114Z,2.70
2022-08-04T14:34:02.155Z,2.38
2022-08-04T14:37:16.743Z,2.70
2022-08-04T14:40:17.655Z,2.38
2022-08-04T14:42:55.475Z,2.67
2022-08-04T14:45:30.620Z,2.90
2022-08-04T14:47:58.478Z,2.30
2022-08-04T14:50:38.015Z,2.55
2022-08-04T14:53:07.268Z,2.72
2022-08-04T14:55:34.671Z,2.50
2022-08-04T14:58:34.089Z,2.63
2022-08-04T15:00:50.092Z,2.58
2022-08-04T15:03:18.946Z,2.97
2022-08-04T15:06:01.757Z,2.70
2022-08-04T15:08:33.438Z,2.50
2022-08-04T15:11:03.260Z,2.38
2022-08-04T15:13:33.754Z,2.25
2022-08-04T15:16:07.221Z,2.47
2022-08-04T15:18:36.850Z,2.53
2022-08-04T15:21:04.622Z,2.42
2022-08-04T15:23:39.372Z,2.30
2022-08-04T15:26:08.584Z,2.50
2022-08-04T15:28:36.761Z,2.53
2022-08-04T15:31:04.953Z,2.47
2022-08-04T15:33:40.476Z,2.58
2022-08-04T15:36:22.467Z,2.80
2022-08-04T15:39:05.477Z,2.55
2022-08-04T15:41:36.271Z,2.53
2022-08-04T15:44:12.489Z,2.47
2022-08-04T15:46:52.167Z,2.67
2022-08-04T15:49:20.824Z,2.80
2022-08-04T15:51:48.219Z,2.60
2022-08-04T15:54:24.452Z,2.15
2022-08-04T15:57:02.318Z,2.50
2022-08-04T15:59:49.147Z,2.70
2022-08-04T16:02:30.032Z,2.67
2022-08-04T16:05:26.731Z,2.90
2022-08-04T16:07:54.499Z,2.40
2022-08-04T16:10:31.191Z,2.53
2022-08-04T16:12:59.681Z,2.33
2022-08-04T16:15:43.610Z,2.33
2022-08-04T16:18:25.525Z,2.53
2022-08-04T16:20:58.293Z,3.33
2022-08-04T16:23:51.352Z,2.60
2022-08-04T16:26:13.522Z,2.50
2022-08-04T16:28:57.856Z,3.03
2022-08-04T16:31:25.214Z,2.15
2022-08-04T16:34:37.585Z,2.65
2022-08-04T16:36:56.592Z,2.55
2022-08-04T16:39:24.002Z,2.63
2022-08-04T16:41:53.462Z,2.80
2022-08-04T16:44:52.199Z,2.60
2022-08-04T16:47:38.917Z,2.50
2022-08-04T16:50:06.407Z,2.55
2022-08-04T16:52:33.785Z,2.42
2022-08-04T16:55:01.252Z,2.72
2022-08-04T16:57:29.401Z,2.15
2022-08-04T16:59:56.766Z,2.58
2022-08-04T17:02:27.338Z,2.43
2022-08-04T17:05:00.928Z,2.33
2022-08-04T17:08:02.205Z,2.50
2022-08-04T17:10:47.030Z,2.80
2022-08-04T17:14:02.151Z,2.47
2022-08-04T17:16:18.484Z,2.75
2022-08-04T17:18:47.255Z,2.50
2022-08-04T17:21:15.809Z,2.55
2022-08-04T17:24:15.708Z,2.35
2022-08-04T17:26:39.518Z,2.35
2022-08-04T17:29:08.983Z,2.55
2022-08-04T17:31:38.231Z,2.45
2022-08-04T17:34:16.479Z,2.65
2022-08-04T17:36:47.602Z,2.30
2022-08-04T17:39:21.296Z,2.67
2022-08-04T17:41:49.664Z,2.40
2022-08-04T17:44:17.617Z,2.58
2022-08-04T17:46:48.107Z,2.80
2022-08-04T17:52:01.797Z,2.72
2022-08-04T17:54:36.813Z,2.83
2022-08-04T17:57:19.474Z,2.60
2022-08-04T17:59:55.884Z,2.50
2022-08-04T18:05:27.187Z,2.78
2022-08-04T18:08:40.814Z,2.75
2022-08-04T18:11:05.102Z,2.60
2022-08-04T18:13:42.341Z,2.42
2022-08-04T18:16:22.150Z,2.67
2022-08-04T18:19:10.345Z,2.30
2022-08-04T18:21:46.692Z,2.50
2022-08-04T18:24:34.757Z,2.50
2022-08-04T18:27:06.222Z,2.35
2022-08-04T18:29:39.239Z,2.50
2022-08-04T18:32:07.103Z,2.75
2022-08-04T18:34:40.869Z,2.50
2022-08-04T18:38:11.407Z,2.78
2022-08-04T18:40:27.874Z,2.50
2022-08-04T18:42:57.699Z,2.50
2022-08-04T18:45:34.620Z,2.70
2022-08-04T18:48:04.295Z,2.83
2022-08-04T18:51:10.059Z,2.65
2022-08-04T18:53:34.982Z,2.70
2022-08-04T18:56:03.909Z,2.40
2022-08-04T18:58:33.679Z,2.80
2022-08-04T19:01:01.263Z,2.40
2022-08-04T19:03:30.530Z,2.30
2022-08-04T19:05:58.371Z,2.60
2022-08-04T19:08:34.226Z,2.25
2022-08-04T19:13:54.751Z,2.63
2022-08-04T19:16:26.042Z,2.60
2022-08-04T19:18:53.322Z,2.60
2022-08-04T19:21:59.988Z,2.50
2022-08-04T19:24:31.260Z,2.70
2022-08-04T19:26:58.073Z,2.78
2022-08-04T19:29:26.098Z,3.08
2022-08-04T19:32:14.828Z,2.50
2022-08-04T19:34:46.282Z,2.40
2022-08-04T19:37:56.347Z,2.78
2022-08-04T19:40:02.715Z,2.63
2022-08-04T19:42:32.203Z,2.85
2022-08-04T19:44:59.499Z,2.60
2022-08-04T19:48:12.007Z,2.55
2022-08-04T19:50:14.539Z,2.38
2022-08-04T19:52:51.587Z,2.60
2022-08-04T19:55:22.294Z,2.40
2022-08-04T19:57:50.465Z,2.75
2022-08-04T20:00:33.092Z,1.98
2022-08-04T20:03:01.783Z,2.60
2022-08-04T20:05:50.080Z,2.60
2022-08-04T20:08:17.607Z,2.30
2022-08-04T20:10:51.127Z,2.50
2022-08-04T20:13:19.089Z,2.50
2022-08-04T20:15:57.988Z,2.60
2022-08-04T20:18:36.142Z,2.05
2022-08-04T20:21:18.925Z,3.97
2022-08-04T20:23:51.422Z,2.83
2022-08-04T20:26:18.737Z,2.53
2022-08-04T20:28:46.229Z,2.22
2022-08-04T20:31:20.069Z,2.35
2022-08-04T20:33:49.240Z,2.00
2022-08-04T20:36:35.854Z,2.10
2022-08-04T20:39:03.465Z,2.28
2022-08-04T20:41:36.691Z,1.95
2022-08-04T20:44:04.504Z,1.85
2022-08-04T20:46:38.002Z,1.88
2022-08-04T20:49:05.935Z,2.08
2022-08-04T20:51:39.886Z,2.05
2022-08-04T20:54:16.202Z,2.00
2022-08-04T20:56:50.542Z,1.90
2022-08-04T20:59:18.680Z,1.88
2022-08-04T21:01:48.911Z,1.88
2022-08-04T21:07:00.271Z,1.80
2022-08-04T21:09:38.466Z,1.80
2022-08-04T21:12:10.908Z,1.98
2022-08-04T21:14:57.108Z,1.80
2022-08-04T21:17:58.809Z,1.70
2022-08-04T21:20:14.005Z,1.70
2022-08-04T21:22:41.481Z,1.38
2022-08-04T21:25:16.224Z,1.63
2022-08-04T21:27:44.044Z,1.85
2022-08-04T21:30:25.108Z,1.85
2022-08-04T21:32:55.241Z,2.00
2022-08-04T21:38:16.540Z,1.85
2022-08-04T21:40:53.953Z,1.95
2022-08-04T21:43:23.738Z,1.80
2022-08-04T21:45:55.771Z,1.70
2022-08-04T21:48:23.905Z,1.90
2022-08-04T21:50:54.969Z,2.17
2022-08-04T21:53:22.337Z,1.80
2022-08-04T21:58:37.753Z,1.80
2022-08-04T22:01:12.847Z,1.50
2022-08-04T22:03:53.026Z,1.67
2022-08-04T22:06:28.291Z,1.80
2022-08-04T22:08:56.195Z,1.70
2022-08-04T22:11:48.389Z,1.73
2022-08-04T22:14:16.983Z,1.65
2022-08-04T22:16:45.413Z,1.50
2022-08-04T22:19:13.697Z,1.13
2022-08-04T22:24:30.007Z,1.35
2022-08-04T22:26:57.369Z,1.58
2022-08-04T22:29:25.337Z,1.52
2022-08-04T22:31:56.839Z,1.45
2022-08-04T22:34:25.119Z,1.83
2022-08-04T22:36:52.597Z,1.80
2022-08-04T22:39:23.713Z,2.13
2022-08-04T22:42:03.610Z,1.65
2022-08-04T22:44:33.105Z,1.70
2022-08-04T22:47:00.883Z,1.40
2022-08-04T22:49:31.586Z,1.88
2022-08-04T22:51:59.604Z,1.48
2022-08-04T22:54:29.714Z,2.03
2022-08-04T22:56:59.102Z,1.50
2022-08-04T22:59:28.139Z,1.33
2022-08-04T23:01:59.735Z,1.92
2022-08-04T23:04:29.267Z,1.30
2022-08-04T23:06:56.573Z,1.58
2022-08-04T23:09:49.176Z,1.58
2022-08-04T23:12:27.938Z,1.70
2022-08-04T23:14:58.926Z,1.60
2022-08-04T23:17:27.741Z,1.45
2022-08-04T23:19:58.737Z,1.60
2022-08-04T23:22:41.137Z,1.80
2022-08-04T23:25:15.390Z,1.52
2022-08-04T23:27:50.824Z,1.48
2022-08-04T23:30:21.916Z,1.60
2022-08-04T23:32:53.333Z,1.73
2022-08-04T23:35:22.138Z,1.67
2022-08-04T23:37:56.315Z,1.55
2022-08-04T23:40:33.310Z,1.75
2022-08-04T23:43:17.182Z,1.80
2022-08-04T23:46:07.115Z,1.75
2022-08-04T23:48:33.404Z,2.00
2022-08-04T23:51:07.671Z,1.83
2022-08-04T23:54:01.881Z,1.98
2022-08-04T23:56:29.555Z,2.10
2022-08-04T23:58:57.131Z,2.60
